Skip Navigation Links Skip Navigation Links

Current Weather

Wheeling Ohio Co, Wheeling, W.V.

For information only: do not use for flight planning or navigation.
Latest weather
Observation time Tuesday, January 26, 2021 7:53 PM EST
Local time Tuesday, January 26, 2021 8:16 PM EST
Flight conditions Marginal Visual Meteorological Conditions
Winds
Wind direction West (270°)
Wind speed 12 mph
Visibility 10 mi.
Sky condition
Ceiling 1,500 ft. broken clouds
Cloud layer broken clouds 1,500 ft.
Cloud layer overcast 2,000 ft.
Temperature 40°F
Dewpoint 35°F
Altimeter 29.85 in.Hg
Precipitation
Rain ended 7:49 PM
Precipitation last hour trace
Derived measurements
Relative humidity 83%
Wind chill 33°F
Density altitude 96 ft.
Sea-level pressure 29.88 in.Hg
Remarks
Automated weather observing station with precipitation discriminator.
METAR KHLG 270053Z 27010KT 10SM BKN015 OVC020 04/02 A2985 RMK AO2 RAE49 SLP118 P0000 T00440017

Settings

Location code

InnerDrive.Weather 4.0.6770.0 Release CLR 4.0.30319.42000
Copyright ©2018 Inner Drive Technology. All rights reserved. Portions Copyright ©1986-2018 David Braverman.

Find weather

Site navigation


Skip Navigation Links

Place info

Page info

PayPal - The safer, easier way to pay online!

Return home.

Copyright ©2021 Inner Drive Technology. Purveyors of fine, hand-crafted computer software. Page printed 2021-01-27T01:16:16 UTC.